Time;durP1;ratioP1;P1;durP2;ratioP2;P2;SDS_P1;SDS_P2;PMS_P1;PMS_P2;Temp;Humidity;BMP_temperature;BMP_pressure;BME280_temperature;BME280_humidity;BME280_pressure;Samples;Min_cycle;Max_cycle;Signal;HPM_P1;HPM_P2
2022/03/01 00:01:12;;;;;;;;;;;;;;;-3.99;60.61;103106.38;1642043;87;20584;-74
2022/03/01 00:03:38;;;;;;;;;;;;;;;-4.02;60.83;103101.95;1642730;86;20570;-74
2022/03/01 00:06:05;;;;;;;;;;;;;;;-4.03;60.96;103107.77;1633695;86;20223;-74
2022/03/01 00:08:31;;;;;;;;;;;;;;;-4.05;60.98;103100.44;1629952;87;20168;-74
2022/03/01 00:10:57;;;;;;;;;;;;;;;-4.04;61.14;103103.85;1618249;87;20282;-74
2022/03/01 00:13:38;;;;;;;;;;;;;;;-4.03;61.08;103106.89;1618362;88;20248;-74
2022/03/01 00:16:04;;;;;;;;;;;;;;;-4.04;61.05;103104.73;1625037;87;20525;-74
2022/03/01 00:18:30;;;;;;;;;;;;;;;-4.05;61.03;103106.76;1618438;87;20252;-74
2022/03/01 00:20:56;;;;;;;;;;;;;;;-4.01;61.05;103115.48;1618435;88;20250;-74
2022/03/01 00:23:22;;;;;;;;;;;;;;;-4.06;60.94;103108.78;1618451;88;20322;-74
2022/03/01 00:25:48;;;;;;;;;;;;;;;-4.11;61.08;103111.30;1621062;87;20188;-74
2022/03/01 00:28:14;;;;;;;;;;;;;;;-4.15;60.90;103105.48;1631887;87;20200;-74
2022/03/01 00:30:39;;;;;;;;;;;;;;;-4.19;61.12;103112.72;1645065;87;20623;-74
2022/03/01 00:33:08;;;;;;;;;;;;;;;-4.19;61.25;103104.76;1637772;87;20227;-75
2022/03/01 00:35:34;;;;;;;;;;;;;;;-4.17;61.44;103104.89;1629958;87;20526;-74
2022/03/01 00:38:00;;;;;;;;;;;;;;;-4.17;61.17;103101.98;1631054;87;20204;-74
2022/03/01 00:40:26;;;;;;;;;;;;;;;-4.19;61.15;103102.61;1644874;87;20315;-74
2022/03/01 00:42:52;;;;;;;;;;;;;;;-4.19;61.16;103103.50;1644740;87;20869;-74
2022/03/01 00:45:17;;;;;;;;;;;;;;;-4.19;61.36;103106.41;1639870;86;20202;-74
2022/03/01 00:47:43;;;;;;;;;;;;;;;-4.22;61.26;103104.50;1627076;87;20324;-74
2022/03/01 00:50:09;;;;;;;;;;;;;;;-4.26;61.07;103105.00;1618491;88;20287;-74
2022/03/01 00:52:35;;;;;;;;;;;;;;;-4.31;61.21;103101.59;1618400;88;20212;-74
2022/03/01 00:55:01;;;;;;;;;;;;;;;-4.34;61.25;103098.42;1624741;87;20180;-74
2022/03/01 00:57:26;;;;;;;;;;;;;;;-4.36;61.22;103101.20;1637319;87;20227;-74
2022/03/01 00:59:53;;;;;;;;;;;;;;;-4.39;61.30;103096.77;1618199;87;20252;-75
2022/03/01 01:02:18;;;;;;;;;;;;;;;-4.40;61.28;103101.31;1618213;88;20699;-75
2022/03/01 01:04:44;;;;;;;;;;;;;;;-4.41;61.35;103094.50;1618362;87;20180;-75
2022/03/01 01:07:11;;;;;;;;;;;;;;;-4.41;61.42;103089.83;1636591;87;20213;-74
2022/03/01 01:09:37;;;;;;;;;;;;;;;-4.38;61.55;103091.34;1644670;86;20316;-74
2022/03/01 01:12:04;;;;;;;;;;;;;;;-4.38;61.53;103106.50;1644762;87;20281;-74
2022/03/01 01:14:32;;;;;;;;;;;;;;;-4.39;61.49;103105.61;1644320;87;20520;-74
2022/03/01 01:16:57;;;;;;;;;;;;;;;-4.38;61.55;103098.55;1640875;87;20205;-74
2022/03/01 01:19:23;;;;;;;;;;;;;;;-4.39;61.66;103087.94;1644664;87;20236;-74
2022/03/01 01:24:33;;;;;;;;;;;;;;;-4.39;61.74;103090.84;1512019;87;10000979;-73
2022/03/01 01:26:59;;;;;;;;;;;;;;;-4.39;61.75;103098.41;1618151;88;20526;-73
2022/03/01 01:29:25;;;;;;;;;;;;;;;-4.41;61.61;103094.50;1619247;87;20274;-73
2022/03/01 01:31:51;;;;;;;;;;;;;;;-4.45;61.54;103086.16;1631608;86;20164;-73
2022/03/01 01:34:17;;;;;;;;;;;;;;;-4.48;61.58;103085.02;1618091;88;20575;-74
2022/03/01 01:36:43;;;;;;;;;;;;;;;-4.51;61.67;103074.66;1618426;87;20219;-74
2022/03/01 01:39:09;;;;;;;;;;;;;;;-4.51;61.63;103079.70;1644315;87;20275;-74
2022/03/01 01:41:34;;;;;;;;;;;;;;;-4.51;61.76;103074.28;1644208;86;20212;-74
2022/03/01 01:44:06;;;;;;;;;;;;;;;-4.52;61.85;103077.56;1644549;86;20267;-74
2022/03/01 01:46:32;;;;;;;;;;;;;;;-4.54;61.78;103081.97;1643317;87;20217;-74
2022/03/01 01:48:58;;;;;;;;;;;;;;;-4.55;61.88;103089.04;1616133;87;20569;-73
2022/03/01 01:51:25;;;;;;;;;;;;;;;-4.53;61.93;103088.41;1607146;87;20315;-73
2022/03/01 01:53:51;;;;;;;;;;;;;;;-4.51;61.96;103080.59;1500524;87;10000324;-73
2022/03/01 01:56:17;;;;;;;;;;;;;;;-4.52;61.90;103078.83;1610092;88;20164;-73
2022/03/01 01:58:43;;;;;;;;;;;;;;;-4.54;61.75;103088.28;1609920;87;21015;-73
2022/03/01 02:01:09;;;;;;;;;;;;;;;-4.55;61.68;103086.52;1609129;87;20172;-73
2022/03/01 02:03:48;;;;;;;;;;;;;;;-4.57;61.92;103090.17;1621002;87;20240;-73
2022/03/01 02:06:13;;;;;;;;;;;;;;;-4.59;61.95;103089.16;1606243;89;20188;-73
2022/03/01 02:08:39;;;;;;;;;;;;;;;-4.57;61.95;103088.91;1607719;88;20286;-73
2022/03/01 02:11:05;;;;;;;;;;;;;;;-4.56;62.19;103087.27;1623620;87;20571;-73
2022/03/01 02:13:31;;;;;;;;;;;;;;;-4.53;62.37;103092.20;1630206;87;20210;-73
2022/03/01 02:15:57;;;;;;;;;;;;;;;-4.51;62.28;103086.91;1632557;87;20248;-73
2022/03/01 02:18:23;;;;;;;;;;;;;;;-4.49;62.31;103084.13;1632402;87;20477;-73
2022/03/01 02:20:49;;;;;;;;;;;;;;;-4.46;62.40;103079.72;1610679;87;20204;-74
2022/03/01 02:23:15;;;;;;;;;;;;;;;-4.44;62.29;103084.52;1620461;87;20192;-74
2022/03/01 02:25:41;;;;;;;;;;;;;;;-4.44;62.08;103085.78;1610126;87;20382;-74
2022/03/01 02:28:06;;;;;;;;;;;;;;;-4.47;62.37;103072.52;1606814;87;20264;-74
2022/03/01 02:30:33;;;;;;;;;;;;;;;-4.47;62.38;103078.83;1606221;87;20224;-73
2022/03/01 02:32:59;;;;;;;;;;;;;;;-4.47;62.33;103077.95;1626808;87;20258;-73
2022/03/01 02:35:26;;;;;;;;;;;;;;;-4.48;62.35;103085.91;1632519;87;20245;-73
2022/03/01 02:37:51;;;;;;;;;;;;;;;-4.50;62.50;103082.36;1615440;87;20224;-73
2022/03/01 02:40:18;;;;;;;;;;;;;;;-4.50;62.49;103078.58;1619302;87;20272;-73
2022/03/01 02:42:45;;;;;;;;;;;;;;;-4.49;62.51;103081.61;1616019;88;20293;-73
2022/03/01 02:45:14;;;;;;;;;;;;;;;-4.49;62.52;103081.61;1616687;87;20206;-73
2022/03/01 02:47:40;;;;;;;;;;;;;;;-4.47;62.50;103078.83;1615370;87;20252;-73
2022/03/01 02:50:07;;;;;;;;;;;;;;;-4.44;62.66;103065.58;1635109;87;20759;-73
2022/03/01 02:52:39;;;;;;;;;;;;;;;-4.41;62.69;103067.09;1644578;86;20245;-73
2022/03/01 02:55:06;;;;;;;;;;;;;;;-4.40;62.63;103068.48;1635353;86;20195;-73
2022/03/01 02:57:32;;;;;;;;;;;;;;;-4.41;62.55;103064.58;1618662;87;20240;-74
2022/03/01 02:59:58;;;;;;;;;;;;;;;-4.40;62.52;103058.77;1632915;87;20553;-74
2022/03/01 03:02:24;;;;;;;;;;;;;;;-4.40;62.65;103058.77;1643385;87;20292;-74
2022/03/01 03:04:50;;;;;;;;;;;;;;;-4.41;62.62;103059.14;1627053;87;20292;-74
2022/03/01 03:07:16;;;;;;;;;;;;;;;-4.38;62.74;103054.35;1644618;87;20216;-73
2022/03/01 03:09:42;;;;;;;;;;;;;;;-4.36;62.70;103052.84;1637306;86;20521;-73
2022/03/01 03:12:10;;;;;;;;;;;;;;;-4.34;62.69;103050.06;1640083;87;20474;-73
2022/03/01 03:14:37;;;;;;;;;;;;;;;-4.34;62.72;103046.28;1633341;86;20150;-74
2022/03/01 03:17:04;;;;;;;;;;;;;;;-4.31;62.76;103051.08;1644528;86;20550;-73
2022/03/01 03:19:30;;;;;;;;;;;;;;;-4.28;62.87;103046.28;1644091;87;20128;-73
2022/03/01 03:21:56;;;;;;;;;;;;;;;-4.25;62.88;103043.63;1622849;86;20160;-73
2022/03/01 03:24:22;;;;;;;;;;;;;;;-4.21;62.95;103034.28;1620335;88;20775;-74
2022/03/01 03:26:48;;;;;;;;;;;;;;;-4.19;62.89;103035.30;1654745;86;20214;-73
2022/03/01 03:29:14;;;;;;;;;;;;;;;-4.16;63.05;103039.30;1634693;86;20227;-73
2022/03/01 03:31:44;;;;;;;;;;;;;;;-4.12;62.98;103039.17;1620477;87;20169;-73
2022/03/01 03:34:10;;;;;;;;;;;;;;;-4.08;63.04;103033.61;1619882;87;20231;-73
2022/03/01 03:36:38;;;;;;;;;;;;;;;-4.05;63.00;103032.60;1620380;87;20160;-73
2022/03/01 03:39:08;;;;;;;;;;;;;;;-4.05;63.02;103030.95;1620417;87;20156;-74
2022/03/01 03:41:34;;;;;;;;;;;;;;;-4.04;63.09;103027.67;1620363;88;20140;-74
2022/03/01 03:44:00;;;;;;;;;;;;;;;-4.01;63.19;103029.19;1620423;87;20152;-74
2022/03/01 03:46:27;;;;;;;;;;;;;;;-3.96;63.39;103027.41;1634251;87;20178;-73
2022/03/01 03:48:53;;;;;;;;;;;;;;;-3.93;63.21;103023.50;1644886;87;20134;-73
2022/03/01 03:51:19;;;;;;;;;;;;;;;-3.91;63.13;103024.88;1643259;86;20210;-73
2022/03/01 03:53:46;;;;;;;;;;;;;;;-3.89;63.15;103025.89;1638436;86;20222;-74
2022/03/01 03:56:12;;;;;;;;;;;;;;;-3.89;63.20;103026.77;1641650;87;20238;-74
2022/03/01 03:58:37;;;;;;;;;;;;;;;-3.88;63.22;103020.08;1637120;86;20300;-74
2022/03/01 04:01:04;;;;;;;;;;;;;;;-3.86;63.40;103022.34;1643850;86;20220;-74
2022/03/01 04:03:30;;;;;;;;;;;;;;;-3.84;63.38;103021.70;1643972;86;20259;-74
2022/03/01 04:05:56;;;;;;;;;;;;;;;-3.84;63.45;103017.92;1644148;86;20216;-74
2022/03/01 04:08:25;;;;;;;;;;;;;;;-3.84;63.44;103017.92;1621729;86;20506;-74
2022/03/01 04:10:50;;;;;;;;;;;;;;;-3.86;63.43;103014.38;1633689;85;20204;-74
2022/03/01 04:13:16;;;;;;;;;;;;;;;-3.87;63.52;103012.62;1644611;86;20192;-74
2022/03/01 04:15:42;;;;;;;;;;;;;;;-3.85;63.47;103017.41;1638732;86;20288;-74
2022/03/01 04:18:08;;;;;;;;;;;;;;;-3.87;63.52;103015.52;1643059;86;20845;-74
2022/03/01 04:20:40;;;;;;;;;;;;;;;-3.89;63.34;103013.25;1636009;87;20231;-74
2022/03/01 04:23:06;;;;;;;;;;;;;;;-3.94;63.41;103017.05;1619030;87;20534;-74
2022/03/01 04:25:31;;;;;;;;;;;;;;;-3.98;63.38;103007.08;1618822;88;20211;-74
2022/03/01 04:27:59;;;;;;;;;;;;;;;-3.99;63.61;103005.31;1631737;87;20387;-73
2022/03/01 04:30:27;;;;;;;;;;;;;;;-4.01;63.48;103008.97;1643248;87;20208;-73
2022/03/01 04:32:54;;;;;;;;;;;;;;;-4.01;63.51;103000.13;1643991;86;20186;-73
2022/03/01 04:35:23;;;;;;;;;;;;;;;-4.01;63.75;103001.77;1643424;86;20204;-74
2022/03/01 04:37:48;;;;;;;;;;;;;;;-4.03;63.68;103002.03;1644991;86;20261;-73
2022/03/01 04:40:16;;;;;;;;;;;;;;;-4.06;63.53;102997.98;1621151;87;20204;-73
2022/03/01 04:42:43;;;;;;;;;;;;;;;-4.09;63.51;103000.27;1643616;87;20234;-74
2022/03/01 04:45:09;;;;;;;;;;;;;;;-4.15;63.57;102994.72;1640305;86;20209;-74
2022/03/01 04:47:37;;;;;;;;;;;;;;;-4.17;63.63;102987.42;1630658;87;20164;-74
2022/03/01 04:50:04;;;;;;;;;;;;;;;-4.19;63.68;102991.09;1633940;87;20138;-74
2022/03/01 04:52:30;;;;;;;;;;;;;;;-4.22;63.66;103000.94;1644161;87;20508;-74
2022/03/01 04:54:56;;;;;;;;;;;;;;;-4.26;63.60;102991.72;1621565;87;20195;-73
2022/03/01 04:57:22;;;;;;;;;;;;;;;-4.29;63.65;102986.05;1618124;88;20268;-74
2022/03/01 04:59:48;;;;;;;;;;;;;;;-4.31;63.77;102978.72;1619122;87;20577;-74
2022/03/01 05:02:14;;;;;;;;;;;;;;;-4.36;63.74;102982.52;1642096;85;20201;-74
2022/03/01 05:04:46;;;;;;;;;;;;;;;-4.39;63.68;102981.00;1642667;87;20209;-74
2022/03/01 05:07:12;;;;;;;;;;;;;;;-4.44;63.57;102978.47;1637042;86;20200;-74
2022/03/01 05:09:37;;;;;;;;;;;;;;;-4.49;63.57;102983.14;1639313;85;20362;-74
2022/03/01 05:12:09;;;;;;;;;;;;;;;-4.52;63.53;102975.31;1639050;85;20492;-74
2022/03/01 05:14:35;;;;;;;;;;;;;;;-4.54;63.60;102973.04;1640589;85;20257;-74
2022/03/01 05:17:01;;;;;;;;;;;;;;;-4.60;63.54;102971.27;1636284;87;20214;-73
2022/03/01 05:19:29;;;;;;;;;;;;;;;-4.67;63.48;102972.40;1643890;87;20207;-73
2022/03/01 05:21:55;;;;;;;;;;;;;;;-4.72;63.57;102975.33;1632790;86;20212;-74
2022/03/01 05:24:24;;;;;;;;;;;;;;;-4.75;63.65;102974.70;1633221;87;20206;-73
2022/03/01 05:26:50;;;;;;;;;;;;;;;-4.74;63.70;102979.37;1644572;87;20368;-73
2022/03/01 05:29:16;;;;;;;;;;;;;;;-4.76;63.64;102979.23;1642907;86;20412;-74
2022/03/01 05:31:48;;;;;;;;;;;;;;;-4.80;63.61;102974.69;1636918;85;20742;-73
2022/03/01 05:34:14;;;;;;;;;;;;;;;-4.83;63.66;102969.39;1641218;85;20171;-73
2022/03/01 05:36:40;;;;;;;;;;;;;;;-4.85;63.63;102965.85;1645132;86;20287;-74
2022/03/01 05:39:24;;;;;;;;;;;;;;;-4.87;63.63;102974.05;1633899;87;20383;-75
2022/03/01 05:41:50;;;;;;;;;;;;;;;-4.92;63.64;102979.97;1639887;86;20216;-76
2022/03/01 05:44:16;;;;;;;;;;;;;;;-4.96;63.75;102980.47;1634304;85;20374;-77
2022/03/01 05:46:46;;;;;;;;;;;;;;;-4.98;63.86;102974.78;1625539;87;20227;-75
2022/03/01 05:49:12;;;;;;;;;;;;;;;-4.97;63.96;102961.41;1621425;87;20222;-76
2022/03/01 05:51:37;;;;;;;;;;;;;;;-4.97;63.82;102965.20;1628352;87;20194;-76
2022/03/01 05:54:04;;;;;;;;;;;;;;;-4.96;63.98;102969.48;1617085;87;20501;-77
2022/03/01 05:56:32;;;;;;;;;;;;;;;-4.93;63.90;102974.80;1617667;88;20218;-77
2022/03/01 05:58:58;;;;;;;;;;;;;;;-4.95;63.95;102970.88;1612677;88;20324;-77
2022/03/01 06:01:24;;;;;;;;;;;;;;;-4.95;64.07;102975.04;1624332;87;20371;-77
2022/03/01 06:03:50;;;;;;;;;;;;;;;-4.93;64.19;102976.05;1606284;88;20196;-77
2022/03/01 06:06:15;;;;;;;;;;;;;;;-4.85;64.23;102975.06;1615966;86;20915;-77
2022/03/01 06:08:41;;;;;;;;;;;;;;;-4.76;64.29;102971.67;1617142;87;20249;-77
2022/03/01 06:11:07;;;;;;;;;;;;;;;-4.65;64.40;102970.00;1613181;88;20190;-77
2022/03/01 06:13:37;;;;;;;;;;;;;;;-4.51;64.43;102972.41;1619208;87;20262;-77
2022/03/01 06:16:04;;;;;;;;;;;;;;;-4.37;64.53;102974.05;1616729;88;20198;-77
2022/03/01 06:18:30;;;;;;;;;;;;;;;-4.25;64.38;102978.34;1614930;88;20154;-77
2022/03/01 06:20:57;;;;;;;;;;;;;;;-4.16;64.45;102982.46;1608720;88;21023;-77
2022/03/01 06:23:25;;;;;;;;;;;;;;;-4.05;64.47;102975.37;1613853;88;20126;-77
2022/03/01 06:25:52;;;;;;;;;;;;;;;-3.93;64.53;102979.65;1612083;88;20183;-77
2022/03/01 06:28:21;;;;;;;;;;;;;;;-3.85;64.52;102976.98;1622894;86;20652;-76
2022/03/01 06:30:49;;;;;;;;;;;;;;;-3.76;64.49;102986.94;1613940;87;20247;-77
2022/03/01 06:33:18;;;;;;;;;;;;;;;-3.72;64.11;102979.72;1617838;88;20186;-77
2022/03/01 06:35:42;;;;;;;;;;;;;;;-3.65;64.48;102986.53;1611215;87;20091;-77
2022/03/01 06:38:08;;;;;;;;;;;;;;;-3.54;64.48;102980.27;1602047;88;20188;-77
2022/03/01 06:40:34;;;;;;;;;;;;;;;-3.36;64.71;102977.03;1598088;89;20139;-77
2022/03/01 06:43:00;;;;;;;;;;;;;;;-3.11;64.71;102980.67;1605162;88;20146;-77
2022/03/01 06:45:27;;;;;;;;;;;;;;;-2.86;64.92;102977.11;1597969;88;20148;-77
2022/03/01 06:47:53;;;;;;;;;;;;;;;-2.55;64.90;102974.33;1577394;90;20514;-77
2022/03/01 06:50:19;;;;;;;;;;;;;;;-2.27;64.99;102964.59;1619418;88;20229;-77
2022/03/01 06:52:45;;;;;;;;;;;;;;;-2.05;64.97;102961.55;1628614;87;20694;-77
2022/03/01 06:55:11;;;;;;;;;;;;;;;-1.80;64.90;102969.28;1631822;87;20271;-77
2022/03/01 06:57:41;;;;;;;;;;;;;;;-1.57;64.82;102970.92;1627124;87;20683;-77
2022/03/01 07:00:09;;;;;;;;;;;;;;;-1.30;65.00;102968.14;1631176;87;20178;-77
2022/03/01 07:02:38;;;;;;;;;;;;;;;-0.93;65.13;102960.11;1599464;88;20820;-77
2022/03/01 07:05:03;;;;;;;;;;;;;;;-0.62;64.95;102970.69;1637222;87;20162;-77
2022/03/01 07:07:36;;;;;;;;;;;;;;;-0.39;64.90;102965.05;1628214;87;20198;-77
2022/03/01 07:10:03;;;;;;;;;;;;;;;-0.18;64.87;102971.94;1600310;88;20166;-78
2022/03/01 07:12:29;;;;;;;;;;;;;;;-0.01;64.78;102961.20;1624627;87;20230;-78
2022/03/01 07:14:56;;;;;;;;;;;;;;;0.22;64.99;102971.55;1605462;89;20526;-77
2022/03/01 07:17:22;;;;;;;;;;;;;;;0.49;65.11;102968.60;1605355;89;20174;-77
2022/03/01 07:19:51;;;;;;;;;;;;;;;0.78;65.10;102961.47;1601570;88;20140;-77
2022/03/01 07:22:18;;;;;;;;;;;;;;;1.06;65.11;102969.48;1598751;89;20211;-78
2022/03/01 07:24:45;;;;;;;;;;;;;;;1.35;65.17;102970.83;1600295;89;20144;-78
2022/03/01 07:27:11;;;;;;;;;;;;;;;1.57;65.09;102971.67;1574373;90;20532;-78
2022/03/01 07:29:37;;;;;;;;;;;;;;;1.79;65.23;102978.90;1576049;90;20194;-78
2022/03/01 07:32:05;;;;;;;;;;;;;;;2.06;65.26;102980.48;1629467;87;20141;-78
2022/03/01 07:34:32;;;;;;;;;;;;;;;2.33;65.18;102983.27;1612174;87;20212;-78
2022/03/01 07:36:58;;;;;;;;;;;;;;;2.62;65.13;102977.58;1632703;87;20217;-78
2022/03/01 07:39:24;;;;;;;;;;;;;;;2.89;65.06;102973.95;1639324;87;20308;-78
2022/03/01 07:41:50;;;;;;;;;;;;;;;3.16;65.18;102974.48;1631477;87;20442;-78
2022/03/01 07:44:17;;;;;;;;;;;;;;;3.41;65.02;102968.08;1630187;87;20194;-77
2022/03/01 07:46:43;;;;;;;;;;;;;;;3.63;65.06;102971.80;1629763;87;20159;-77
2022/03/01 07:49:15;;;;;;;;;;;;;;;3.85;65.02;102971.16;1630356;87;20242;-77
2022/03/01 07:51:41;;;;;;;;;;;;;;;4.03;65.08;102976.70;1623327;87;20561;-77
2022/03/01 07:54:07;;;;;;;;;;;;;;;4.09;65.23;102976.59;1616636;87;20757;-77
2022/03/01 07:56:34;;;;;;;;;;;;;;;4.19;65.10;102980.45;1619815;87;20559;-78
2022/03/01 07:58:59;;;;;;;;;;;;;;;4.34;65.11;102974.78;1616276;87;20223;-78
2022/03/01 08:01:25;;;;;;;;;;;;;;;4.47;65.09;102973.67;1617031;87;20568;-78
2022/03/01 08:03:51;;;;;;;;;;;;;;;4.58;65.32;102970.80;1614915;87;20162;-78
2022/03/01 08:06:17;;;;;;;;;;;;;;;4.68;65.47;102975.08;1625066;87;20226;-78
2022/03/01 08:08:45;;;;;;;;;;;;;;;4.73;65.48;102967.16;1627123;87;20644;-79
2022/03/01 08:11:11;;;;;;;;;;;;;;;4.76;65.45;102969.86;1623546;87;20604;-76
2022/03/01 08:13:37;;;;;;;;;;;;;;;4.76;65.59;102974.58;1613130;87;20539;-76
2022/03/01 08:16:04;;;;;;;;;;;;;;;4.75;65.48;102974.52;1624122;87;20186;-74
2022/03/01 08:18:33;;;;;;;;;;;;;;;4.69;65.40;102976.39;1615466;87;20198;-76
2022/03/01 08:20:59;;;;;;;;;;;;;;;4.63;65.39;102967.17;1621850;87;21232;-75
2022/03/01 08:23:27;;;;;;;;;;;;;;;4.59;65.28;102959.75;1614060;87;20469;-75
2022/03/01 08:25:53;;;;;;;;;;;;;;;4.54;65.23;102961.22;1618248;87;20513;-76
2022/03/01 08:28:19;;;;;;;;;;;;;;;4.55;65.33;102965.54;1624649;87;20791;-76
2022/03/01 08:30:51;;;;;;;;;;;;;;;4.59;65.35;102960.16;1614500;87;20251;-75
2022/03/01 08:33:16;;;;;;;;;;;;;;;4.60;65.14;102968.31;1623341;87;20529;-75
2022/03/01 08:35:41;;;;;;;;;;;;;;;4.60;65.19;102963.19;1611343;87;20618;-76
2022/03/01 08:38:07;;;;;;;;;;;;;;;4.63;65.03;102961.64;1612709;87;20507;-75
2022/03/01 08:40:37;;;;;;;;;;;;;;;4.62;65.06;102965.02;1616060;87;20294;-75
2022/03/01 08:43:03;;;;;;;;;;;;;;;4.64;65.09;102967.24;1584584;89;20797;-75
2022/03/01 08:45:29;;;;;;;;;;;;;;;4.63;65.04;102962.05;1581368;89;20221;-75
2022/03/01 08:47:55;;;;;;;;;;;;;;;4.59;64.99;102964.88;1581203;89;20618;-75
2022/03/01 08:50:20;;;;;;;;;;;;;;;4.52;64.97;102960.27;1553393;91;20347;-75
2022/03/01 08:52:49;;;;;;;;;;;;;;;4.45;64.87;102959.52;1559702;91;20780;-75
2022/03/01 08:55:15;;;;;;;;;;;;;;;4.33;64.80;102955.97;1596231;89;20461;-75
2022/03/01 08:57:41;;;;;;;;;;;;;;;4.23;64.87;102952.91;1628729;87;20579;-75
2022/03/01 09:00:10;;;;;;;;;;;;;;;4.17;64.87;102952.20;1629388;88;20139;-75
2022/03/01 09:02:36;;;;;;;;;;;;;;;4.11;64.77;102953.62;1622776;88;20344;-75
2022/03/01 09:05:02;;;;;;;;;;;;;;;4.05;64.82;102954.22;1606231;88;20530;-75
2022/03/01 09:07:28;;;;;;;;;;;;;;;3.98;64.67;102956.88;1609705;87;20256;-75
2022/03/01 09:09:54;;;;;;;;;;;;;;;3.92;64.70;102955.70;1612743;88;20817;-75
2022/03/01 09:12:20;;;;;;;;;;;;;;;3.85;64.80;102949.81;1619940;87;20209;-75
2022/03/01 09:14:45;;;;;;;;;;;;;;;3.77;64.55;102948.55;1609204;88;21587;-75
2022/03/01 09:17:11;;;;;;;;;;;;;;;3.72;64.60;102949.61;1616620;87;20864;-76
2022/03/01 09:19:40;;;;;;;;;;;;;;;3.68;64.57;102947.70;1615254;88;20221;-75
2022/03/01 09:22:06;;;;;;;;;;;;;;;3.63;64.46;102946.22;1608265;88;20313;-75
2022/03/01 09:24:31;;;;;;;;;;;;;;;3.63;64.55;102946.62;1617046;87;20882;-75
2022/03/01 09:27:01;;;;;;;;;;;;;;;3.61;64.38;102943.11;1619260;88;20296;-75
2022/03/01 09:29:25;;;;;;;;;;;;;;;3.60;64.42;102939.67;1620639;88;20531;-75
2022/03/01 09:31:50;;;;;;;;;;;;;;;3.61;64.41;102934.16;1621113;87;20271;-75
2022/03/01 09:34:16;;;;;;;;;;;;;;;3.61;64.44;102932.48;1623946;87;20250;-75
2022/03/01 09:36:42;;;;;;;;;;;;;;;3.64;64.36;102928.76;1618182;88;20207;-75
2022/03/01 09:39:08;;;;;;;;;;;;;;;3.67;64.19;102933.14;1615385;88;20916;-75
2022/03/01 09:41:37;;;;;;;;;;;;;;;3.70;64.24;102931.14;1611126;87;20242;-75
2022/03/01 09:44:04;;;;;;;;;;;;;;;3.72;64.08;102924.02;1608901;88;20604;-75
2022/03/01 09:46:29;;;;;;;;;;;;;;;3.72;63.98;102918.02;1623139;88;20190;-75
2022/03/01 09:48:56;;;;;;;;;;;;;;;3.76;64.15;102919.53;1618368;88;20205;-75
2022/03/01 09:51:22;;;;;;;;;;;;;;;3.76;63.98;102918.65;1605046;88;20103;-75
2022/03/01 09:53:50;;;;;;;;;;;;;;;3.80;64.07;102920.16;1610607;87;20138;-75
2022/03/01 09:56:18;;;;;;;;;;;;;;;3.80;63.87;102911.20;1616589;88;20163;-75
2022/03/01 09:58:46;;;;;;;;;;;;;;;3.83;63.98;102907.91;1613689;87;20127;-75
2022/03/01 10:01:14;;;;;;;;;;;;;;;3.87;63.90;102906.85;1616837;88;20574;-75
2022/03/01 10:03:40;;;;;;;;;;;;;;;3.91;63.92;102906.20;1617270;88;20325;-74
2022/03/01 10:06:11;;;;;;;;;;;;;;;3.93;63.78;102909.70;1620448;87;20140;-75
2022/03/01 10:08:37;;;;;;;;;;;;;;;3.94;63.75;102905.47;1617174;87;20158;-75
2022/03/01 10:11:03;;;;;;;;;;;;;;;3.97;63.78;102895.38;1618771;87;20271;-75
2022/03/01 10:13:31;;;;;;;;;;;;;;;3.97;63.71;102899.21;1600860;88;20184;-75
2022/03/01 10:16:14;;;;;;;;;;;;;;;4.00;63.67;102894.23;1613620;87;20111;-76
2022/03/01 10:18:50;;;;;;;;;;;;;;;4.05;63.73;102891.49;1613063;87;20139;-75
2022/03/01 10:21:16;;;;;;;;;;;;;;;4.12;63.85;102891.37;1620168;88;20136;-75
2022/03/01 10:23:48;;;;;;;;;;;;;;;4.15;63.56;102887.69;1604360;89;20145;-75
2022/03/01 10:26:20;;;;;;;;;;;;;;;4.17;63.58;102887.31;1613417;87;20457;-75
2022/03/01 10:28:47;;;;;;;;;;;;;;;4.16;63.29;102876.20;1625206;87;20163;-75
2022/03/01 10:31:19;;;;;;;;;;;;;;;4.18;63.58;102873.31;1611423;87;20099;-75
2022/03/01 10:33:57;;;;;;;;;;;;;;;4.22;63.48;102870.08;1619315;88;20138;-75
2022/03/01 10:36:29;;;;;;;;;;;;;;;4.26;63.35;102870.70;1598709;89;20555;-75
2022/03/01 10:38:57;;;;;;;;;;;;;;;4.33;63.43;102871.45;1601087;88;20113;-75
2022/03/01 10:41:28;;;;;;;;;;;;;;;4.42;63.40;102862.44;1602343;89;20141;-75
2022/03/01 10:43:59;;;;;;;;;;;;;;;4.50;63.37;102855.97;1615548;88;20139;-75
2022/03/01 10:46:26;;;;;;;;;;;;;;;4.54;63.47;102859.14;1594759;87;20093;-75
2022/03/01 10:49:10;;;;;;;;;;;;;;;4.58;63.33;102858.47;1615644;87;20131;-75
2022/03/01 10:51:48;;;;;;;;;;;;;;;4.57;63.32;102853.75;1523828;86;10000550;-75
2022/03/01 10:54:27;;;;;;;;;;;;;;;4.62;63.26;102848.42;1620359;87;20135;-75
2022/03/01 10:56:56;;;;;;;;;;;;;;;4.64;63.25;102840.41;1619228;87;20131;-75
2022/03/01 10:59:25;;;;;;;;;;;;;;;4.65;63.16;102843.44;1594050;88;20187;-75
2022/03/01 11:01:51;;;;;;;;;;;;;;;4.61;62.91;102832.98;1616132;87;20194;-75
2022/03/01 11:04:17;;;;;;;;;;;;;;;4.60;62.94;102828.27;1623575;87;20099;-75
2022/03/01 11:06:44;;;;;;;;;;;;;;;4.63;63.09;102827.52;1607660;87;20367;-75
2022/03/01 11:09:11;;;;;;;;;;;;;;;4.64;63.23;102825.44;1614430;87;20231;-75
2022/03/01 11:11:40;;;;;;;;;;;;;;;4.69;62.97;102828.16;1626094;86;36286;-75
2022/03/01 11:14:08;;;;;;;;;;;;;;;4.72;63.06;102821.89;1624300;87;20230;-75
2022/03/01 11:16:37;;;;;;;;;;;;;;;4.76;63.00;102817.37;1616854;87;20249;-75
2022/03/01 11:19:26;;;;;;;;;;;;;;;4.80;62.97;102814.13;1596288;89;20184;-75
2022/03/01 11:21:52;;;;;;;;;;;;;;;4.83;62.89;102814.26;1617453;87;20223;-75
2022/03/01 11:24:19;;;;;;;;;;;;;;;4.83;62.72;102807.45;1612278;88;20215;-75
2022/03/01 11:26:46;;;;;;;;;;;;;;;4.83;62.52;102806.57;1626458;87;20210;-75
2022/03/01 11:29:13;;;;;;;;;;;;;;;4.82;62.73;102798.41;1616940;87;20194;-75
2022/03/01 11:31:42;;;;;;;;;;;;;;;4.87;63.01;102799.48;1593664;89;20238;-75
2022/03/01 11:34:16;;;;;;;;;;;;;;;4.88;62.79;102796.98;1633790;86;20217;-75
2022/03/01 11:36:49;;;;;;;;;;;;;;;4.91;62.71;102796.23;1635404;87;20265;-75
2022/03/01 11:39:17;;;;;;;;;;;;;;;4.93;62.57;102790.77;1634854;86;20256;-75
2022/03/01 11:41:49;;;;;;;;;;;;;;;4.96;62.43;102789.21;1636306;87;20138;-75
2022/03/01 11:44:23;;;;;;;;;;;;;;;4.98;62.44;102783.73;1631239;87;20102;-75
2022/03/01 11:46:50;;;;;;;;;;;;;;;4.99;62.46;102782.93;1625724;87;20414;-75
2022/03/01 11:49:19;;;;;;;;;;;;;;;4.99;62.32;102778.20;1629935;87;20240;-75
2022/03/01 11:51:48;;;;;;;;;;;;;;;4.99;62.37;102776.52;1633146;87;20229;-74
2022/03/01 11:54:20;;;;;;;;;;;;;;;4.99;62.45;102768.83;1629935;86;20319;-75
2022/03/01 11:56:48;;;;;;;;;;;;;;;5.00;62.31;102764.58;1639857;86;20126;-75
2022/03/01 11:59:14;;;;;;;;;;;;;;;5.00;62.43;102763.30;1634114;86;20162;-75
2022/03/01 12:01:40;;;;;;;;;;;;;;;4.99;62.47;102761.14;1635019;86;20213;-75
2022/03/01 12:04:08;;;;;;;;;;;;;;;5.01;62.24;102759.05;1398515;87;20001725;-75
2022/03/01 12:06:36;;;;;;;;;;;;;;;5.04;62.34;102752.35;1623613;86;20150;-75
2022/03/01 12:09:04;;;;;;;;;;;;;;;5.10;62.20;102746.59;1649209;86;20098;-75
2022/03/01 12:11:39;;;;;;;;;;;;;;;5.15;62.29;102743.41;1633385;87;20089;-75
2022/03/01 12:14:19;;;;;;;;;;;;;;;5.19;62.08;102733.74;1638616;87;20105;-75
2022/03/01 12:16:46;;;;;;;;;;;;;;;5.22;61.83;102738.95;1624331;87;20177;-75
2022/03/01 12:19:17;;;;;;;;;;;;;;;5.25;61.92;102733.08;1636703;86;20122;-75
2022/03/01 12:21:54;;;;;;;;;;;;;;;5.22;61.80;102728.70;1638509;86;20105;-75
2022/03/01 12:24:29;;;;;;;;;;;;;;;5.25;62.07;102726.26;1626113;86;20115;-75
2022/03/01 12:26:57;;;;;;;;;;;;;;;5.28;61.94;102719.09;1637936;86;20125;-75
2022/03/01 12:29:25;;;;;;;;;;;;;;;5.31;62.09;102721.37;1638460;87;20096;-75
2022/03/01 12:32:03;;;;;;;;;;;;;;;5.34;61.70;102719.33;1636642;86;20195;-76
2022/03/01 12:34:38;;;;;;;;;;;;;;;5.33;61.60;102715.02;1634317;86;20317;-76
2022/03/01 12:37:14;;;;;;;;;;;;;;;5.35;61.56;102708.26;1631985;87;20196;-75
2022/03/01 12:39:41;;;;;;;;;;;;;;;5.32;61.62;102707.73;1636353;86;20219;-76
2022/03/01 12:42:08;;;;;;;;;;;;;;;5.33;61.67;102701.78;1644403;85;20202;-75
2022/03/01 12:44:35;;;;;;;;;;;;;;;5.35;61.71;102704.81;1634287;87;20212;-76